Aérodrome :
LOGIN :

S'inscrire | Disclaimer

   EN    FR    IT 

 










Légende :    VFR   VFR Marginal   IFR   IFR Intensif   IFR Très Intensif
Visi : 
Plafond : 
>= 8 km
>= 3000ft
5 à 8 km
1000 à 3000 ft
1500m à 5 km
500 à 1000 ft
800 à 1500m
200 à 500 ft
< 800m
< 200 ft
Symboles :   Orages  Brouillard  Fortes neiges  Fortes précipitations  Vent > 20 kt
SIGMETs :   Divers  Orages  Givrage  Turbulence  Onde Orograph.  Cendres Volcan.







- Altitude de l'aérodrome : 106 ft
- Code IATA : XDA
- Voir les cartes d'approche


LFBY - Dax Seyresse

DERNIER METAR :
  • 200900Z VRB02KT 7000 NSC 08/04 Q1033

METARs EXPIRÉS :
  • 200830Z VRB03KT 4000 MIFG FEW003 06/03 Q1033
  • 200800Z VRB01KT 3000 MIFG FEW003 04/04 Q1033
  • 200700Z 34002KT 3000 BR FEW003 01/01 Q1032
  • 200630Z 34002KT 3000 BR FEW003 00/00 Q1032
  • 200556Z 00000KT 5000 BR NSC 00/00 Q1031 RMK M2
  • 200600Z 00000KT 5000 BR NSC 00/00 Q1031

TAF TAF LFBY
Valide du 20 à 09h jusqu'au 20 à 18h UTC


200800Z 2009/2018 06004KT CAVOK
Pas de NOTAMs connus pour ce terrain.



MET'MAP, la Météo Aéronautique d'un coup d'oeil ! - Copyright ORBIFLY Décembre 2007 - Disclaimer

ORBIFLY MET'MAP TEAM :

Programmation & Développement : Alexandra Zaïnal
Conception & Développement : Baudouin d'Aumeries
Co-Programmation & Développement : Marc-Olivier Méhu
Soutien technique & logistique : Manuel Goepfert

Contact : metmap@orbifly.com




SOURCES & CREDITS :

   NOAA